sensor_id;sensor_type;location;lat;lon;timestamp;P1;durP1;ratioP1;P2;durP2;ratioP2
70213;SDS011;60138;55.808;37.078;2023-06-14T00:00:03;16.00;;;5.75;;
70213;SDS011;60138;55.808;37.078;2023-06-14T00:02:34;11.10;;;6.47;;
70213;SDS011;60138;55.808;37.078;2023-06-14T00:05:01;11.02;;;6.15;;
70213;SDS011;60138;55.808;37.078;2023-06-14T00:07:38;9.80;;;5.77;;
70213;SDS011;60138;55.808;37.078;2023-06-14T00:10:05;15.93;;;5.68;;
70213;SDS011;60138;55.808;37.078;2023-06-14T00:12:31;12.57;;;6.13;;
70213;SDS011;60138;55.808;37.078;2023-06-14T00:14:57;11.25;;;5.68;;
70213;SDS011;60138;55.808;37.078;2023-06-14T00:17:22;12.65;;;6.00;;
70213;SDS011;60138;55.808;37.078;2023-06-14T00:19:48;11.90;;;5.83;;
70213;SDS011;60138;55.808;37.078;2023-06-14T00:22:14;13.18;;;7.68;;
70213;SDS011;60138;55.808;37.078;2023-06-14T00:24:40;13.18;;;6.45;;
70213;SDS011;60138;55.808;37.078;2023-06-14T00:27:05;12.07;;;6.03;;
70213;SDS011;60138;55.808;37.078;2023-06-14T00:29:31;10.63;;;5.47;;
70213;SDS011;60138;55.808;37.078;2023-06-14T00:31:57;9.30;;;6.00;;
70213;SDS011;60138;55.808;37.078;2023-06-14T00:34:26;15.80;;;5.90;;
70213;SDS011;60138;55.808;37.078;2023-06-14T00:36:51;11.27;;;5.47;;
70213;SDS011;60138;55.808;37.078;2023-06-14T00:39:17;10.00;;;5.70;;
70213;SDS011;60138;55.808;37.078;2023-06-14T00:41:43;9.80;;;5.43;;
70213;SDS011;60138;55.808;37.078;2023-06-14T00:44:08;11.73;;;5.67;;
70213;SDS011;60138;55.808;37.078;2023-06-14T00:46:34;11.98;;;6.97;;
70213;SDS011;60138;55.808;37.078;2023-06-14T00:49:00;10.07;;;5.95;;
70213;SDS011;60138;55.808;37.078;2023-06-14T00:51:26;12.23;;;5.93;;
70213;SDS011;60138;55.808;37.078;2023-06-14T00:53:52;11.53;;;5.70;;
70213;SDS011;60138;55.808;37.078;2023-06-14T00:56:18;14.45;;;5.75;;
70213;SDS011;60138;55.808;37.078;2023-06-14T01:02:39;12.37;;;5.90;;
70213;SDS011;60138;55.808;37.078;2023-06-14T01:05:08;9.10;;;6.03;;
70213;SDS011;60138;55.808;37.078;2023-06-14T01:13:12;11.48;;;6.32;;
70213;SDS011;60138;55.808;37.078;2023-06-14T01:16:14;11.60;;;6.07;;
70213;SDS011;60138;55.808;37.078;2023-06-14T01:18:40;10.75;;;6.70;;
70213;SDS011;60138;55.808;37.078;2023-06-14T01:21:19;10.90;;;6.47;;
70213;SDS011;60138;55.808;37.078;2023-06-14T01:23:50;13.85;;;6.13;;
70213;SDS011;60138;55.808;37.078;2023-06-14T01:26:17;10.68;;;5.22;;
70213;SDS011;60138;55.808;37.078;2023-06-14T01:28:43;10.90;;;6.17;;
70213;SDS011;60138;55.808;37.078;2023-06-14T01:31:09;10.20;;;6.30;;
70213;SDS011;60138;55.808;37.078;2023-06-14T01:33:35;15.82;;;6.63;;
70213;SDS011;60138;55.808;37.078;2023-06-14T01:36:02;14.90;;;6.77;;
70213;SDS011;60138;55.808;37.078;2023-06-14T01:38:30;11.38;;;6.55;;
70213;SDS011;60138;55.808;37.078;2023-06-14T01:40:58;13.75;;;6.20;;
70213;SDS011;60138;55.808;37.078;2023-06-14T01:43:25;11.63;;;7.35;;
70213;SDS011;60138;55.808;37.078;2023-06-14T01:45:51;9.52;;;5.90;;
70213;SDS011;60138;55.808;37.078;2023-06-14T01:48:19;9.67;;;5.73;;
70213;SDS011;60138;55.808;37.078;2023-06-14T01:50:50;10.30;;;5.50;;
70213;SDS011;60138;55.808;37.078;2023-06-14T01:53:19;9.35;;;5.90;;
70213;SDS011;60138;55.808;37.078;2023-06-14T01:55:45;11.82;;;6.55;;
70213;SDS011;60138;55.808;37.078;2023-06-14T01:58:11;11.25;;;6.60;;
70213;SDS011;60138;55.808;37.078;2023-06-14T02:00:37;12.43;;;6.53;;
70213;SDS011;60138;55.808;37.078;2023-06-14T02:03:02;12.83;;;6.47;;
70213;SDS011;60138;55.808;37.078;2023-06-14T02:05:28;10.18;;;5.97;;
70213;SDS011;60138;55.808;37.078;2023-06-14T02:07:54;10.20;;;5.73;;
70213;SDS011;60138;55.808;37.078;2023-06-14T02:10:20;15.05;;;6.20;;
70213;SDS011;60138;55.808;37.078;2023-06-14T02:12:48;10.77;;;6.15;;
70213;SDS011;60138;55.808;37.078;2023-06-14T02:15:14;10.80;;;5.45;;
70213;SDS011;60138;55.808;37.078;2023-06-14T02:17:40;10.13;;;5.80;;
70213;SDS011;60138;55.808;37.078;2023-06-14T02:20:06;8.25;;;5.43;;
70213;SDS011;60138;55.808;37.078;2023-06-14T02:22:33;10.32;;;6.18;;
70213;SDS011;60138;55.808;37.078;2023-06-14T02:24:58;12.33;;;5.73;;
70213;SDS011;60138;55.808;37.078;2023-06-14T02:27:24;11.27;;;5.97;;
70213;SDS011;60138;55.808;37.078;2023-06-14T02:29:50;11.83;;;5.50;;
70213;SDS011;60138;55.808;37.078;2023-06-14T02:32:16;12.05;;;5.82;;
70213;SDS011;60138;55.808;37.078;2023-06-14T02:34:41;8.70;;;5.70;;
70213;SDS011;60138;55.808;37.078;2023-06-14T02:37:07;11.70;;;5.47;;
70213;SDS011;60138;55.808;37.078;2023-06-14T02:39:33;11.90;;;6.13;;
70213;SDS011;60138;55.808;37.078;2023-06-14T02:41:59;10.77;;;5.73;;
70213;SDS011;60138;55.808;37.078;2023-06-14T02:44:26;9.05;;;5.13;;
70213;SDS011;60138;55.808;37.078;2023-06-14T02:46:52;11.60;;;5.80;;
70213;SDS011;60138;55.808;37.078;2023-06-14T02:49:18;10.77;;;5.78;;
70213;SDS011;60138;55.808;37.078;2023-06-14T02:51:44;9.23;;;5.37;;
70213;SDS011;60138;55.808;37.078;2023-06-14T02:54:10;12.02;;;5.03;;
70213;SDS011;60138;55.808;37.078;2023-06-14T02:56:38;12.80;;;5.25;;
70213;SDS011;60138;55.808;37.078;2023-06-14T02:59:04;9.67;;;4.83;;
70213;SDS011;60138;55.808;37.078;2023-06-14T03:01:30;14.20;;;5.22;;
70213;SDS011;60138;55.808;37.078;2023-06-14T03:03:56;15.80;;;5.72;;
70213;SDS011;60138;55.808;37.078;2023-06-14T03:06:22;10.77;;;5.07;;
70213;SDS011;60138;55.808;37.078;2023-06-14T03:08:51;11.40;;;5.53;;
70213;SDS011;60138;55.808;37.078;2023-06-14T03:11:17;9.38;;;5.40;;
70213;SDS011;60138;55.808;37.078;2023-06-14T03:13:44;9.88;;;4.78;;
70213;SDS011;60138;55.808;37.078;2023-06-14T03:16:10;8.87;;;4.77;;
70213;SDS011;60138;55.808;37.078;2023-06-14T03:18:38;9.23;;;4.63;;
70213;SDS011;60138;55.808;37.078;2023-06-14T03:21:05;9.65;;;4.90;;
70213;SDS011;60138;55.808;37.078;2023-06-14T03:23:31;10.03;;;5.00;;
70213;SDS011;60138;55.808;37.078;2023-06-14T03:25:57;10.60;;;5.40;;
70213;SDS011;60138;55.808;37.078;2023-06-14T03:28:23;9.15;;;5.10;;
70213;SDS011;60138;55.808;37.078;2023-06-14T03:30:51;13.98;;;4.78;;
70213;SDS011;60138;55.808;37.078;2023-06-14T03:33:17;12.15;;;6.45;;
70213;SDS011;60138;55.808;37.078;2023-06-14T03:35:43;8.97;;;4.80;;
70213;SDS011;60138;55.808;37.078;2023-06-14T03:38:09;8.88;;;5.35;;
70213;SDS011;60138;55.808;37.078;2023-06-14T03:40:35;10.00;;;5.60;;
70213;SDS011;60138;55.808;37.078;2023-06-14T03:43:03;8.60;;;4.70;;
70213;SDS011;60138;55.808;37.078;2023-06-14T03:45:29;10.93;;;5.38;;
70213;SDS011;60138;55.808;37.078;2023-06-14T03:47:56;11.95;;;4.78;;
70213;SDS011;60138;55.808;37.078;2023-06-14T03:50:23;13.43;;;5.05;;
70213;SDS011;60138;55.808;37.078;2023-06-14T03:52:50;9.02;;;5.40;;
70213;SDS011;60138;55.808;37.078;2023-06-14T03:55:17;8.93;;;5.13;;
70213;SDS011;60138;55.808;37.078;2023-06-14T03:57:43;9.10;;;5.18;;
70213;SDS011;60138;55.808;37.078;2023-06-14T04:00:12;11.00;;;4.90;;
70213;SDS011;60138;55.808;37.078;2023-06-14T04:02:42;10.05;;;4.78;;
70213;SDS011;60138;55.808;37.078;2023-06-14T04:05:10;12.07;;;4.63;;
70213;SDS011;60138;55.808;37.078;2023-06-14T04:07:42;9.10;;;4.93;;
70213;SDS011;60138;55.808;37.078;2023-06-14T04:10:08;9.48;;;4.75;;
70213;SDS011;60138;55.808;37.078;2023-06-14T04:12:34;9.35;;;4.28;;
70213;SDS011;60138;55.808;37.078;2023-06-14T04:15:00;10.85;;;4.68;;
70213;SDS011;60138;55.808;37.078;2023-06-14T04:17:25;8.23;;;4.60;;
70213;SDS011;60138;55.808;37.078;2023-06-14T04:19:52;10.82;;;4.75;;
70213;SDS011;60138;55.808;37.078;2023-06-14T04:22:17;8.55;;;3.97;;
70213;SDS011;60138;55.808;37.078;2023-06-14T04:24:43;11.67;;;5.10;;
70213;SDS011;60138;55.808;37.078;2023-06-14T04:27:10;9.70;;;4.55;;
70213;SDS011;60138;55.808;37.078;2023-06-14T04:29:37;8.93;;;4.38;;
70213;SDS011;60138;55.808;37.078;2023-06-14T04:32:10;10.95;;;4.55;;
70213;SDS011;60138;55.808;37.078;2023-06-14T04:34:37;7.70;;;4.10;;
70213;SDS011;60138;55.808;37.078;2023-06-14T04:37:03;8.05;;;3.83;;
70213;SDS011;60138;55.808;37.078;2023-06-14T04:39:35;8.85;;;4.03;;
70213;SDS011;60138;55.808;37.078;2023-06-14T04:42:02;9.20;;;4.20;;
70213;SDS011;60138;55.808;37.078;2023-06-14T04:44:28;7.75;;;4.60;;
70213;SDS011;60138;55.808;37.078;2023-06-14T04:46:54;11.60;;;4.33;;
70213;SDS011;60138;55.808;37.078;2023-06-14T04:49:22;9.32;;;4.65;;
70213;SDS011;60138;55.808;37.078;2023-06-14T04:51:48;7.78;;;4.82;;
70213;SDS011;60138;55.808;37.078;2023-06-14T04:54:13;7.53;;;4.30;;
70213;SDS011;60138;55.808;37.078;2023-06-14T04:56:43;7.85;;;4.32;;
70213;SDS011;60138;55.808;37.078;2023-06-14T04:59:11;9.65;;;3.88;;
70213;SDS011;60138;55.808;37.078;2023-06-14T05:01:37;9.50;;;3.72;;
70213;SDS011;60138;55.808;37.078;2023-06-14T05:04:03;8.32;;;3.78;;
70213;SDS011;60138;55.808;37.078;2023-06-14T05:06:29;7.30;;;3.53;;
70213;SDS011;60138;55.808;37.078;2023-06-14T05:08:55;6.60;;;3.25;;
70213;SDS011;60138;55.808;37.078;2023-06-14T05:11:22;7.13;;;3.70;;
70213;SDS011;60138;55.808;37.078;2023-06-14T05:13:48;9.77;;;3.47;;
70213;SDS011;60138;55.808;37.078;2023-06-14T05:16:14;9.35;;;3.97;;
70213;SDS011;60138;55.808;37.078;2023-06-14T05:18:40;9.52;;;4.72;;
70213;SDS011;60138;55.808;37.078;2023-06-14T05:21:05;9.30;;;4.20;;
70213;SDS011;60138;55.808;37.078;2023-06-14T05:23:31;7.72;;;3.50;;
70213;SDS011;60138;55.808;37.078;2023-06-14T05:25:57;14.07;;;3.50;;
70213;SDS011;60138;55.808;37.078;2023-06-14T05:28:23;9.65;;;3.75;;
70213;SDS011;60138;55.808;37.078;2023-06-14T05:30:49;5.90;;;3.33;;
70213;SDS011;60138;55.808;37.078;2023-06-14T05:33:15;8.37;;;4.30;;
70213;SDS011;60138;55.808;37.078;2023-06-14T05:35:41;10.35;;;3.65;;
70213;SDS011;60138;55.808;37.078;2023-06-14T05:38:06;8.35;;;3.72;;
70213;SDS011;60138;55.808;37.078;2023-06-14T05:40:32;18.33;;;3.85;;
70213;SDS011;60138;55.808;37.078;2023-06-14T05:42:58;7.88;;;3.28;;
70213;SDS011;60138;55.808;37.078;2023-06-14T05:45:24;10.70;;;3.67;;
70213;SDS011;60138;55.808;37.078;2023-06-14T05:47:50;7.03;;;3.42;;
70213;SDS011;60138;55.808;37.078;2023-06-14T05:50:15;8.73;;;3.40;;
70213;SDS011;60138;55.808;37.078;2023-06-14T05:55:38;5.78;;;3.30;;
70213;SDS011;60138;55.808;37.078;2023-06-14T05:58:04;5.07;;;2.90;;
70213;SDS011;60138;55.808;37.078;2023-06-14T06:00:29;6.00;;;3.00;;
70213;SDS011;60138;55.808;37.078;2023-06-14T06:02:55;9.05;;;3.67;;
70213;SDS011;60138;55.808;37.078;2023-06-14T06:05:21;9.13;;;3.10;;
70213;SDS011;60138;55.808;37.078;2023-06-14T06:07:46;9.67;;;3.00;;
70213;SDS011;60138;55.808;37.078;2023-06-14T06:10:12;7.10;;;3.17;;
70213;SDS011;60138;55.808;37.078;2023-06-14T06:12:38;9.07;;;3.10;;
70213;SDS011;60138;55.808;37.078;2023-06-14T06:15:04;6.72;;;3.05;;
70213;SDS011;60138;55.808;37.078;2023-06-14T06:17:31;12.13;;;3.00;;
70213;SDS011;60138;55.808;37.078;2023-06-14T06:19:57;9.43;;;3.42;;
70213;SDS011;60138;55.808;37.078;2023-06-14T06:22:23;7.05;;;3.33;;
70213;SDS011;60138;55.808;37.078;2023-06-14T06:24:49;11.93;;;3.00;;
70213;SDS011;60138;55.808;37.078;2023-06-14T06:27:15;8.80;;;3.78;;
70213;SDS011;60138;55.808;37.078;2023-06-14T06:29:42;7.57;;;3.28;;
70213;SDS011;60138;55.808;37.078;2023-06-14T06:32:07;10.20;;;2.97;;
70213;SDS011;60138;55.808;37.078;2023-06-14T06:34:33;9.18;;;3.67;;
70213;SDS011;60138;55.808;37.078;2023-06-14T06:36:59;7.33;;;3.40;;
70213;SDS011;60138;55.808;37.078;2023-06-14T06:39:25;6.20;;;2.88;;
70213;SDS011;60138;55.808;37.078;2023-06-14T06:41:50;8.83;;;2.83;;
70213;SDS011;60138;55.808;37.078;2023-06-14T06:44:26;4.88;;;2.55;;
70213;SDS011;60138;55.808;37.078;2023-06-14T06:46:54;8.75;;;2.90;;
70213;SDS011;60138;55.808;37.078;2023-06-14T06:49:20;4.27;;;2.57;;
70213;SDS011;60138;55.808;37.078;2023-06-14T06:51:58;5.60;;;2.40;;
70213;SDS011;60138;55.808;37.078;2023-06-14T06:54:25;6.93;;;2.63;;
70213;SDS011;60138;55.808;37.078;2023-06-14T06:56:51;9.43;;;2.77;;
70213;SDS011;60138;55.808;37.078;2023-06-14T06:59:17;11.30;;;3.33;;
70213;SDS011;60138;55.808;37.078;2023-06-14T07:01:42;6.53;;;3.00;;
70213;SDS011;60138;55.808;37.078;2023-06-14T07:04:08;6.85;;;3.05;;
70213;SDS011;60138;55.808;37.078;2023-06-14T07:06:34;5.23;;;2.53;;
70213;SDS011;60138;55.808;37.078;2023-06-14T07:09:00;5.15;;;2.47;;
70213;SDS011;60138;55.808;37.078;2023-06-14T07:11:25;13.27;;;2.67;;
70213;SDS011;60138;55.808;37.078;2023-06-14T07:13:51;7.82;;;2.47;;
70213;SDS011;60138;55.808;37.078;2023-06-14T07:16:17;5.40;;;2.47;;
70213;SDS011;60138;55.808;37.078;2023-06-14T07:18:42;8.50;;;2.40;;
70213;SDS011;60138;55.808;37.078;2023-06-14T07:21:08;6.10;;;2.80;;
70213;SDS011;60138;55.808;37.078;2023-06-14T07:23:34;7.17;;;2.40;;
70213;SDS011;60138;55.808;37.078;2023-06-14T07:25:59;5.20;;;2.40;;
70213;SDS011;60138;55.808;37.078;2023-06-14T07:28:25;5.03;;;2.83;;
70213;SDS011;60138;55.808;37.078;2023-06-14T07:30:51;6.60;;;2.63;;
70213;SDS011;60138;55.808;37.078;2023-06-14T07:33:17;13.55;;;3.05;;
70213;SDS011;60138;55.808;37.078;2023-06-14T07:35:43;5.50;;;2.50;;
70213;SDS011;60138;55.808;37.078;2023-06-14T07:38:08;7.67;;;2.90;;
70213;SDS011;60138;55.808;37.078;2023-06-14T07:40:34;6.47;;;2.85;;
70213;SDS011;60138;55.808;37.078;2023-06-14T07:43:00;6.40;;;3.10;;
70213;SDS011;60138;55.808;37.078;2023-06-14T07:45:25;6.80;;;2.90;;
70213;SDS011;60138;55.808;37.078;2023-06-14T07:47:51;5.67;;;3.33;;
70213;SDS011;60138;55.808;37.078;2023-06-14T07:50:17;5.93;;;2.72;;
70213;SDS011;60138;55.808;37.078;2023-06-14T07:52:43;9.60;;;3.07;;
70213;SDS011;60138;55.808;37.078;2023-06-14T07:55:09;7.63;;;2.80;;
70213;SDS011;60138;55.808;37.078;2023-06-14T07:57:35;9.80;;;2.53;;
70213;SDS011;60138;55.808;37.078;2023-06-14T08:00:01;5.67;;;3.03;;
70213;SDS011;60138;55.808;37.078;2023-06-14T08:02:38;6.40;;;2.90;;
70213;SDS011;60138;55.808;37.078;2023-06-14T08:05:04;8.40;;;3.17;;
70213;SDS011;60138;55.808;37.078;2023-06-14T08:07:30;7.50;;;3.50;;
70213;SDS011;60138;55.808;37.078;2023-06-14T08:09:55;7.23;;;2.60;;
70213;SDS011;60138;55.808;37.078;2023-06-14T08:12:21;7.40;;;3.00;;
70213;SDS011;60138;55.808;37.078;2023-06-14T08:14:47;4.83;;;2.60;;
70213;SDS011;60138;55.808;37.078;2023-06-14T08:17:13;11.57;;;3.05;;
70213;SDS011;60138;55.808;37.078;2023-06-14T08:19:38;6.57;;;2.50;;
70213;SDS011;60138;55.808;37.078;2023-06-14T08:22:04;8.60;;;3.00;;
70213;SDS011;60138;55.808;37.078;2023-06-14T08:24:30;10.63;;;3.13;;
70213;SDS011;60138;55.808;37.078;2023-06-14T08:26:56;7.65;;;2.17;;
70213;SDS011;60138;55.808;37.078;2023-06-14T08:29:22;6.38;;;2.50;;
70213;SDS011;60138;55.808;37.078;2023-06-14T08:31:48;9.60;;;3.10;;
70213;SDS011;60138;55.808;37.078;2023-06-14T08:34:14;9.63;;;2.95;;
70213;SDS011;60138;55.808;37.078;2023-06-14T08:36:39;6.90;;;3.17;;
70213;SDS011;60138;55.808;37.078;2023-06-14T08:39:05;5.93;;;2.70;;
70213;SDS011;60138;55.808;37.078;2023-06-14T08:41:31;5.77;;;2.90;;
70213;SDS011;60138;55.808;37.078;2023-06-14T08:43:57;16.10;;;2.85;;
70213;SDS011;60138;55.808;37.078;2023-06-14T08:46:24;5.97;;;2.40;;
70213;SDS011;60138;55.808;37.078;2023-06-14T08:48:51;5.78;;;2.70;;
70213;SDS011;60138;55.808;37.078;2023-06-14T08:51:20;7.30;;;2.90;;
70213;SDS011;60138;55.808;37.078;2023-06-14T08:53:48;5.13;;;2.50;;
70213;SDS011;60138;55.808;37.078;2023-06-14T08:56:19;8.18;;;3.22;;
70213;SDS011;60138;55.808;37.078;2023-06-14T08:58:45;6.40;;;2.90;;
70213;SDS011;60138;55.808;37.078;2023-06-14T09:01:12;6.80;;;2.83;;
70213;SDS011;60138;55.808;37.078;2023-06-14T09:03:38;7.88;;;2.80;;
70213;SDS011;60138;55.808;37.078;2023-06-14T09:06:04;8.37;;;3.03;;
70213;SDS011;60138;55.808;37.078;2023-06-14T09:08:29;7.45;;;2.92;;
70213;SDS011;60138;55.808;37.078;2023-06-14T09:10:57;8.52;;;2.80;;
70213;SDS011;60138;55.808;37.078;2023-06-14T09:13:23;5.70;;;2.70;;
70213;SDS011;60138;55.808;37.078;2023-06-14T09:15:50;10.82;;;3.03;;
70213;SDS011;60138;55.808;37.078;2023-06-14T09:18:18;5.85;;;2.60;;
70213;SDS011;60138;55.808;37.078;2023-06-14T09:20:44;10.18;;;3.20;;
70213;SDS011;60138;55.808;37.078;2023-06-14T09:23:10;6.60;;;2.43;;
70213;SDS011;60138;55.808;37.078;2023-06-14T09:25:42;6.53;;;3.20;;
70213;SDS011;60138;55.808;37.078;2023-06-14T09:28:08;6.83;;;2.70;;
70213;SDS011;60138;55.808;37.078;2023-06-14T09:30:35;5.75;;;2.72;;
70213;SDS011;60138;55.808;37.078;2023-06-14T09:33:04;8.43;;;3.00;;
70213;SDS011;60138;55.808;37.078;2023-06-14T09:35:32;5.77;;;3.23;;
70213;SDS011;60138;55.808;37.078;2023-06-14T09:37:58;6.35;;;2.85;;
70213;SDS011;60138;55.808;37.078;2023-06-14T09:40:24;5.45;;;2.75;;
70213;SDS011;60138;55.808;37.078;2023-06-14T09:42:50;4.97;;;2.95;;
70213;SDS011;60138;55.808;37.078;2023-06-14T09:45:17;6.93;;;3.00;;
70213;SDS011;60138;55.808;37.078;2023-06-14T09:47:43;7.28;;;3.25;;
70213;SDS011;60138;55.808;37.078;2023-06-14T09:50:09;7.35;;;2.90;;
70213;SDS011;60138;55.808;37.078;2023-06-14T09:52:35;8.20;;;3.10;;
70213;SDS011;60138;55.808;37.078;2023-06-14T09:55:01;8.53;;;2.40;;
70213;SDS011;60138;55.808;37.078;2023-06-14T09:57:38;10.07;;;2.95;;
70213;SDS011;60138;55.808;37.078;2023-06-14T10:00:07;9.77;;;3.30;;
70213;SDS011;60138;55.808;37.078;2023-06-14T10:02:38;10.10;;;3.20;;
70213;SDS011;60138;55.808;37.078;2023-06-14T10:05:07;8.60;;;3.33;;
70213;SDS011;60138;55.808;37.078;2023-06-14T10:07:40;7.88;;;2.85;;
70213;SDS011;60138;55.808;37.078;2023-06-14T10:10:13;8.65;;;2.70;;
70213;SDS011;60138;55.808;37.078;2023-06-14T10:12:39;9.73;;;3.05;;
70213;SDS011;60138;55.808;37.078;2023-06-14T10:15:07;7.23;;;3.03;;
70213;SDS011;60138;55.808;37.078;2023-06-14T10:17:45;7.20;;;2.78;;
70213;SDS011;60138;55.808;37.078;2023-06-14T10:20:26;7.18;;;3.53;;
70213;SDS011;60138;55.808;37.078;2023-06-14T10:23:17;7.22;;;2.75;;
70213;SDS011;60138;55.808;37.078;2023-06-14T10:25:44;9.30;;;2.90;;
70213;SDS011;60138;55.808;37.078;2023-06-14T10:33:50;7.78;;;2.70;;
70213;SDS011;60138;55.808;37.078;2023-06-14T10:39:01;7.70;;;3.13;;
70213;SDS011;60138;55.808;37.078;2023-06-14T10:41:31;5.40;;;2.65;;
70213;SDS011;60138;55.808;37.078;2023-06-14T10:44:30;5.28;;;2.63;;
70213;SDS011;60138;55.808;37.078;2023-06-14T10:46:58;4.90;;;2.80;;
70213;SDS011;60138;55.808;37.078;2023-06-14T10:49:41;5.43;;;2.63;;
70213;SDS011;60138;55.808;37.078;2023-06-14T10:52:11;5.32;;;2.80;;
70213;SDS011;60138;55.808;37.078;2023-06-14T10:54:38;9.40;;;2.53;;
70213;SDS011;60138;55.808;37.078;2023-06-14T10:57:21;6.47;;;3.05;;
70213;SDS011;60138;55.808;37.078;2023-06-14T10:59:46;9.60;;;3.47;;
70213;SDS011;60138;55.808;37.078;2023-06-14T11:02:20;8.32;;;2.83;;
70213;SDS011;60138;55.808;37.078;2023-06-14T11:05:11;6.82;;;2.72;;
70213;SDS011;60138;55.808;37.078;2023-06-14T11:08:15;6.55;;;3.13;;
70213;SDS011;60138;55.808;37.078;2023-06-14T11:10:46;5.33;;;2.73;;
70213;SDS011;60138;55.808;37.078;2023-06-14T11:16:09;9.93;;;3.00;;
70213;SDS011;60138;55.808;37.078;2023-06-14T11:18:36;6.88;;;2.35;;
70213;SDS011;60138;55.808;37.078;2023-06-14T11:21:02;7.20;;;2.87;;
70213;SDS011;60138;55.808;37.078;2023-06-14T11:23:28;7.13;;;2.83;;
70213;SDS011;60138;55.808;37.078;2023-06-14T11:25:54;9.75;;;2.95;;
70213;SDS011;60138;55.808;37.078;2023-06-14T11:28:20;5.00;;;2.67;;
70213;SDS011;60138;55.808;37.078;2023-06-14T11:30:45;8.10;;;2.93;;
70213;SDS011;60138;55.808;37.078;2023-06-14T11:33:14;5.72;;;2.20;;
70213;SDS011;60138;55.808;37.078;2023-06-14T11:35:42;5.40;;;2.80;;
70213;SDS011;60138;55.808;37.078;2023-06-14T11:38:09;6.00;;;2.53;;
70213;SDS011;60138;55.808;37.078;2023-06-14T11:40:37;7.70;;;2.70;;
70213;SDS011;60138;55.808;37.078;2023-06-14T11:43:03;12.15;;;2.88;;
70213;SDS011;60138;55.808;37.078;2023-06-14T11:45:29;8.90;;;2.30;;
70213;SDS011;60138;55.808;37.078;2023-06-14T11:47:56;4.45;;;2.50;;
70213;SDS011;60138;55.808;37.078;2023-06-14T11:50:23;7.55;;;2.60;;
70213;SDS011;60138;55.808;37.078;2023-06-14T11:52:57;8.07;;;2.50;;
70213;SDS011;60138;55.808;37.078;2023-06-14T11:55:24;9.82;;;2.58;;
70213;SDS011;60138;55.808;37.078;2023-06-14T11:57:50;12.80;;;3.03;;
70213;SDS011;60138;55.808;37.078;2023-06-14T12:00:16;7.20;;;2.33;;
70213;SDS011;60138;55.808;37.078;2023-06-14T12:02:42;5.10;;;2.20;;
70213;SDS011;60138;55.808;37.078;2023-06-14T12:05:20;5.88;;;2.25;;
70213;SDS011;60138;55.808;37.078;2023-06-14T12:07:46;6.83;;;2.43;;
70213;SDS011;60138;55.808;37.078;2023-06-14T12:10:13;7.90;;;2.47;;
70213;SDS011;60138;55.808;37.078;2023-06-14T12:12:39;11.70;;;2.67;;
70213;SDS011;60138;55.808;37.078;2023-06-14T12:15:06;5.32;;;2.05;;
70213;SDS011;60138;55.808;37.078;2023-06-14T12:17:34;4.82;;;2.20;;
70213;SDS011;60138;55.808;37.078;2023-06-14T12:20:11;7.93;;;2.70;;
70213;SDS011;60138;55.808;37.078;2023-06-14T12:22:38;5.78;;;2.20;;
70213;SDS011;60138;55.808;37.078;2023-06-14T12:25:04;7.07;;;2.92;;
70213;SDS011;60138;55.808;37.078;2023-06-14T12:27:30;6.68;;;2.53;;
70213;SDS011;60138;55.808;37.078;2023-06-14T12:30:05;5.93;;;2.47;;
70213;SDS011;60138;55.808;37.078;2023-06-14T12:32:32;7.07;;;2.60;;
70213;SDS011;60138;55.808;37.078;2023-06-14T12:34:58;8.13;;;2.30;;
70213;SDS011;60138;55.808;37.078;2023-06-14T12:37:24;6.00;;;2.20;;
70213;SDS011;60138;55.808;37.078;2023-06-14T12:39:50;5.70;;;2.50;;
70213;SDS011;60138;55.808;37.078;2023-06-14T12:42:16;9.27;;;2.37;;
70213;SDS011;60138;55.808;37.078;2023-06-14T12:44:42;6.07;;;2.45;;
70213;SDS011;60138;55.808;37.078;2023-06-14T12:47:07;6.00;;;2.47;;
70213;SDS011;60138;55.808;37.078;2023-06-14T12:49:33;9.27;;;2.37;;
70213;SDS011;60138;55.808;37.078;2023-06-14T12:51:59;9.15;;;2.42;;
70213;SDS011;60138;55.808;37.078;2023-06-14T12:54:25;7.13;;;2.40;;
70213;SDS011;60138;55.808;37.078;2023-06-14T12:56:51;8.30;;;2.60;;
70213;SDS011;60138;55.808;37.078;2023-06-14T12:59:17;8.10;;;2.47;;
70213;SDS011;60138;55.808;37.078;2023-06-14T13:01:43;8.50;;;2.20;;
70213;SDS011;60138;55.808;37.078;2023-06-14T13:04:09;5.77;;;2.27;;
70213;SDS011;60138;55.808;37.078;2023-06-14T13:06:35;11.93;;;2.20;;
70213;SDS011;60138;55.808;37.078;2023-06-14T13:09:00;6.43;;;2.17;;
70213;SDS011;60138;55.808;37.078;2023-06-14T13:11:26;5.03;;;2.30;;
70213;SDS011;60138;55.808;37.078;2023-06-14T13:13:52;4.78;;;2.28;;
70213;SDS011;60138;55.808;37.078;2023-06-14T13:16:18;5.97;;;2.10;;
70213;SDS011;60138;55.808;37.078;2023-06-14T13:18:43;7.90;;;2.10;;
70213;SDS011;60138;55.808;37.078;2023-06-14T13:21:09;6.45;;;2.30;;
70213;SDS011;60138;55.808;37.078;2023-06-14T13:23:35;6.40;;;2.10;;
70213;SDS011;60138;55.808;37.078;2023-06-14T13:26:01;9.50;;;4.65;;
70213;SDS011;60138;55.808;37.078;2023-06-14T13:28:26;4.43;;;2.30;;
70213;SDS011;60138;55.808;37.078;2023-06-14T13:30:52;6.13;;;2.15;;
70213;SDS011;60138;55.808;37.078;2023-06-14T13:33:18;8.63;;;2.20;;
70213;SDS011;60138;55.808;37.078;2023-06-14T13:35:43;8.35;;;2.20;;
70213;SDS011;60138;55.808;37.078;2023-06-14T13:38:09;6.10;;;2.30;;
70213;SDS011;60138;55.808;37.078;2023-06-14T13:40:35;6.75;;;2.10;;
70213;SDS011;60138;55.808;37.078;2023-06-14T13:43:01;4.82;;;2.15;;
70213;SDS011;60138;55.808;37.078;2023-06-14T13:45:27;6.40;;;2.10;;
70213;SDS011;60138;55.808;37.078;2023-06-14T13:47:52;6.38;;;2.30;;
70213;SDS011;60138;55.808;37.078;2023-06-14T13:50:18;6.17;;;2.00;;
70213;SDS011;60138;55.808;37.078;2023-06-14T13:52:44;7.22;;;2.30;;
70213;SDS011;60138;55.808;37.078;2023-06-14T13:55:10;7.63;;;2.10;;
70213;SDS011;60138;55.808;37.078;2023-06-14T13:57:35;5.82;;;2.35;;
70213;SDS011;60138;55.808;37.078;2023-06-14T14:00:01;6.65;;;2.60;;
70213;SDS011;60138;55.808;37.078;2023-06-14T14:02:38;4.40;;;2.10;;
70213;SDS011;60138;55.808;37.078;2023-06-14T14:05:05;7.38;;;2.42;;
70213;SDS011;60138;55.808;37.078;2023-06-14T14:07:31;10.18;;;2.72;;
70213;SDS011;60138;55.808;37.078;2023-06-14T14:09:57;6.87;;;2.87;;
70213;SDS011;60138;55.808;37.078;2023-06-14T14:12:22;7.03;;;2.40;;
70213;SDS011;60138;55.808;37.078;2023-06-14T14:14:49;7.53;;;2.40;;
70213;SDS011;60138;55.808;37.078;2023-06-14T14:17:14;5.40;;;2.70;;
70213;SDS011;60138;55.808;37.078;2023-06-14T14:19:40;8.05;;;2.50;;
70213;SDS011;60138;55.808;37.078;2023-06-14T14:22:05;6.80;;;2.70;;
70213;SDS011;60138;55.808;37.078;2023-06-14T14:24:31;8.70;;;2.42;;
70213;SDS011;60138;55.808;37.078;2023-06-14T14:26:57;5.40;;;2.23;;
70213;SDS011;60138;55.808;37.078;2023-06-14T14:29:23;4.40;;;2.58;;
70213;SDS011;60138;55.808;37.078;2023-06-14T14:31:48;5.43;;;2.30;;
70213;SDS011;60138;55.808;37.078;2023-06-14T14:34:14;4.83;;;2.27;;
70213;SDS011;60138;55.808;37.078;2023-06-14T14:36:40;5.40;;;2.50;;
70213;SDS011;60138;55.808;37.078;2023-06-14T14:39:06;7.10;;;2.50;;
70213;SDS011;60138;55.808;37.078;2023-06-14T14:41:31;8.55;;;2.90;;
70213;SDS011;60138;55.808;37.078;2023-06-14T14:43:57;8.13;;;2.30;;
70213;SDS011;60138;55.808;37.078;2023-06-14T14:46:23;7.30;;;2.13;;
70213;SDS011;60138;55.808;37.078;2023-06-14T14:48:49;6.03;;;2.00;;
70213;SDS011;60138;55.808;37.078;2023-06-14T14:51:15;5.32;;;2.08;;
70213;SDS011;60138;55.808;37.078;2023-06-14T14:53:41;5.70;;;2.22;;